createdAt,value
2023-04-09T00:00:49.455Z,13.50
2023-04-09T00:03:18.857Z,10.75
2023-04-09T00:05:46.898Z,11.90
2023-04-09T00:08:14.800Z,14.35
2023-04-09T00:10:42.731Z,10.77
2023-04-09T00:13:10.709Z,12.00
2023-04-09T00:15:38.668Z,12.38
2023-04-09T00:18:06.594Z,11.18
2023-04-09T00:20:35.904Z,12.93
2023-04-09T00:23:03.889Z,10.57
2023-04-09T00:25:31.766Z,12.00
2023-04-09T00:27:59.654Z,10.88
2023-04-09T00:30:29.573Z,10.30
2023-04-09T00:32:57.625Z,11.10
2023-04-09T00:35:25.691Z,11.75
2023-04-09T00:37:54.993Z,9.95
2023-04-09T00:40:26.084Z,10.85
2023-04-09T00:42:54.073Z,11.48
2023-04-09T00:45:22.067Z,11.63
2023-04-09T00:47:50.047Z,11.38
2023-04-09T00:50:18.139Z,11.80
2023-04-09T00:52:46.700Z,12.20
2023-04-09T00:55:16.725Z,12.13
2023-04-09T00:57:44.639Z,12.23
2023-04-09T01:00:13.997Z,11.30
2023-04-09T01:02:42.756Z,12.15
2023-04-09T01:05:11.855Z,12.65
2023-04-09T01:07:55.676Z,10.93
2023-04-09T01:10:33.324Z,11.60
2023-04-09T01:13:07.068Z,12.18
2023-04-09T01:15:38.411Z,11.80
2023-04-09T01:18:08.705Z,11.93
2023-04-09T01:20:42.490Z,11.73
2023-04-09T01:23:19.699Z,10.68
2023-04-09T01:26:03.216Z,11.32
2023-04-09T01:28:36.350Z,10.52
2023-04-09T01:31:08.984Z,11.85
2023-04-09T01:33:39.220Z,11.55
2023-04-09T01:36:08.308Z,11.43
2023-04-09T01:38:37.800Z,9.82
2023-04-09T01:41:07.227Z,10.45
2023-04-09T01:43:38.363Z,11.15
2023-04-09T01:46:06.489Z,9.93
2023-04-09T01:48:35.301Z,12.13
2023-04-09T01:51:03.311Z,11.75
2023-04-09T01:53:31.382Z,12.50
2023-04-09T01:56:01.251Z,11.77
2023-04-09T01:58:29.309Z,11.55
2023-04-09T02:01:04.919Z,12.30
2023-04-09T02:03:38.319Z,10.80
2023-04-09T02:06:15.590Z,9.52
2023-04-09T02:08:47.488Z,10.07
2023-04-09T02:11:16.512Z,11.15
2023-04-09T02:13:45.290Z,11.60
2023-04-09T02:16:16.781Z,10.32
2023-04-09T02:18:45.178Z,12.30
2023-04-09T02:21:13.807Z,9.55
2023-04-09T02:23:41.877Z,10.52
2023-04-09T02:26:09.807Z,10.27
2023-04-09T02:28:37.728Z,8.80
2023-04-09T02:31:06.001Z,10.93
2023-04-09T02:33:37.542Z,10.38
2023-04-09T02:36:05.982Z,10.20
2023-04-09T02:38:37.099Z,11.83
2023-04-09T02:41:07.883Z,10.73
2023-04-09T02:43:35.863Z,10.40
2023-04-09T02:46:07.900Z,9.15
2023-04-09T02:48:37.211Z,7.72
2023-04-09T02:51:06.489Z,10.77
2023-04-09T02:53:34.436Z,11.27
2023-04-09T02:56:02.410Z,12.20
2023-04-09T02:58:30.341Z,10.02
2023-04-09T03:00:58.319Z,9.88
2023-04-09T03:03:26.394Z,10.23
2023-04-09T03:05:55.748Z,11.63
2023-04-09T03:08:23.743Z,10.93
2023-04-09T03:10:56.962Z,9.93
2023-04-09T03:13:25.011Z,11.13
2023-04-09T03:15:53.972Z,9.88
2023-04-09T03:18:22.080Z,8.77
2023-04-09T03:20:50.003Z,9.10
2023-04-09T03:23:19.322Z,9.70
2023-04-09T03:25:47.324Z,9.05
2023-04-09T03:28:15.491Z,10.27
2023-04-09T03:30:43.384Z,10.35
2023-04-09T03:33:11.401Z,9.32
2023-04-09T03:35:39.299Z,12.50
2023-04-09T03:38:08.484Z,9.48
2023-04-09T03:40:37.841Z,8.88
2023-04-09T03:43:05.747Z,8.82
2023-04-09T03:45:33.689Z,9.20
2023-04-09T03:48:01.613Z,10.20
2023-04-09T03:50:29.586Z,10.27
2023-04-09T03:52:57.565Z,10.02
2023-04-09T03:55:25.582Z,10.40
2023-04-09T03:57:54.892Z,9.63
2023-04-09T04:00:22.789Z,9.68
2023-04-09T04:02:50.929Z,11.80
2023-04-09T04:05:19.116Z,10.88
2023-04-09T04:07:46.964Z,10.85
2023-04-09T04:10:15.532Z,9.15
2023-04-09T04:12:43.528Z,11.77
2023-04-09T04:15:13.340Z,9.65
2023-04-09T04:17:41.499Z,9.27
2023-04-09T04:20:10.578Z,10.27
2023-04-09T04:22:38.541Z,11.00
2023-04-09T04:25:07.045Z,10.27
2023-04-09T04:27:35.031Z,9.68
2023-04-09T04:30:03.058Z,10.63
2023-04-09T04:32:32.463Z,10.55
2023-04-09T04:35:00.469Z,8.73
2023-04-09T04:37:28.513Z,11.10
2023-04-09T04:39:56.406Z,9.57
2023-04-09T04:42:24.549Z,9.82
2023-04-09T04:44:52.507Z,9.45
2023-04-09T04:47:20.612Z,10.13
2023-04-09T04:49:50.019Z,8.65
2023-04-09T04:52:18.012Z,10.18
2023-04-09T04:54:45.992Z,10.60
2023-04-09T04:57:13.990Z,11.10
2023-04-09T04:59:42.066Z,9.95
2023-04-09T05:02:10.332Z,9.43
2023-04-09T05:04:38.285Z,8.05
2023-04-09T05:07:07.614Z,10.38
2023-04-09T05:09:35.533Z,12.18
2023-04-09T05:12:03.628Z,9.63
2023-04-09T05:14:31.616Z,8.65
2023-04-09T05:16:59.695Z,10.52
2023-04-09T05:19:27.746Z,10.10
2023-04-09T05:21:55.627Z,8.32
2023-04-09T05:24:24.903Z,10.32
2023-04-09T05:26:52.837Z,10.90
2023-04-09T05:29:26.034Z,11.18
2023-04-09T05:31:53.956Z,7.75
2023-04-09T05:34:21.927Z,8.05
2023-04-09T05:36:49.905Z,9.40
2023-04-09T05:39:17.858Z,8.50
2023-04-09T05:41:47.309Z,9.63
2023-04-09T05:44:15.412Z,9.63
2023-04-09T05:46:46.196Z,9.07
2023-04-09T05:49:14.163Z,7.90
2023-04-09T05:51:43.265Z,8.75
2023-04-09T05:54:11.321Z,9.27
2023-04-09T05:56:39.465Z,8.88
2023-04-09T05:59:08.811Z,8.63
2023-04-09T06:01:36.795Z,9.93
2023-04-09T06:04:05.257Z,9.30
2023-04-09T06:06:33.438Z,8.32
2023-04-09T06:09:01.428Z,9.13
2023-04-09T06:11:29.355Z,9.25
2023-04-09T06:13:57.287Z,9.98
2023-04-09T06:16:27.146Z,10.05
2023-04-09T06:18:56.930Z,9.43
2023-04-09T06:21:24.920Z,8.90
2023-04-09T06:23:53.499Z,11.23
2023-04-09T06:26:21.938Z,9.25
2023-04-09T06:28:54.044Z,9.43
2023-04-09T06:31:22.062Z,10.23
2023-04-09T06:33:51.778Z,5.78
2023-04-09T06:36:19.944Z,7.13
2023-04-09T06:38:47.950Z,8.15
2023-04-09T06:41:16.204Z,10.05
2023-04-09T06:43:44.136Z,10.68
2023-04-09T06:46:13.541Z,10.45
2023-04-09T06:48:42.514Z,10.63
2023-04-09T06:51:12.030Z,10.80
2023-04-09T06:53:40.654Z,7.82
2023-04-09T06:56:08.796Z,8.13
2023-04-09T06:58:36.799Z,7.70
2023-04-09T07:01:05.073Z,7.15
2023-04-09T07:03:35.773Z,10.77
2023-04-09T07:06:03.927Z,9.60
2023-04-09T07:08:33.166Z,10.93
2023-04-09T07:11:01.253Z,12.82
2023-04-09T07:16:02.120Z,10.70
2023-04-09T07:18:30.225Z,11.13
2023-04-09T07:20:58.341Z,11.27
2023-04-09T07:23:27.225Z,10.45
2023-04-09T07:25:56.806Z,11.95
2023-04-09T07:28:24.771Z,11.98
2023-04-09T07:30:53.379Z,11.63
2023-04-09T07:33:21.455Z,14.35
2023-04-09T07:35:49.504Z,12.73
2023-04-09T07:38:17.520Z,10.02
2023-04-09T07:40:45.521Z,11.98
2023-04-09T07:43:14.840Z,11.27
2023-04-09T07:45:44.549Z,11.77
2023-04-09T07:48:15.554Z,10.23
2023-04-09T07:50:45.046Z,11.18
2023-04-09T07:53:12.983Z,9.23
2023-04-09T07:55:41.060Z,9.50
2023-04-09T07:58:08.998Z,12.77
2023-04-09T08:00:38.425Z,12.13
2023-04-09T08:03:06.661Z,11.48
2023-04-09T08:05:34.854Z,9.82
2023-04-09T08:08:03.419Z,10.73
2023-04-09T08:10:31.326Z,13.30
2023-04-09T08:12:59.296Z,9.02
2023-04-09T08:15:27.271Z,10.35
2023-04-09T08:17:56.933Z,9.95
2023-04-09T08:20:25.449Z,9.82
2023-04-09T08:22:53.361Z,9.48
2023-04-09T08:25:23.823Z,8.23
2023-04-09T08:27:51.762Z,9.27
2023-04-09T08:30:19.742Z,27.17
2023-04-09T08:32:47.733Z,12.55
2023-04-09T08:35:17.259Z,13.02
2023-04-09T08:37:45.222Z,9.95
2023-04-09T08:40:13.633Z,11.77
2023-04-09T08:42:45.924Z,9.40
2023-04-09T08:47:44.671Z,9.05
2023-04-09T08:50:12.786Z,9.68
2023-04-09T08:52:42.841Z,8.90
2023-04-09T08:55:13.943Z,10.80
2023-04-09T08:57:45.356Z,10.98
2023-04-09T09:00:14.454Z,11.23
2023-04-09T09:03:02.762Z,11.45
2023-04-09T09:05:38.048Z,12.80
2023-04-09T09:08:09.010Z,11.23
2023-04-09T09:10:41.691Z,9.93
2023-04-09T09:13:21.340Z,12.48
2023-04-09T09:15:50.662Z,11.00
2023-04-09T09:18:19.537Z,11.85
2023-04-09T09:20:47.467Z,12.57
2023-04-09T09:23:16.835Z,11.00
2023-04-09T09:25:44.873Z,9.77
2023-04-09T09:28:13.665Z,11.20
2023-04-09T09:30:41.946Z,12.05
2023-04-09T09:33:11.627Z,12.13
2023-04-09T09:35:50.377Z,10.48
2023-04-09T09:38:19.786Z,12.35
2023-04-09T09:40:48.654Z,12.98
2023-04-09T09:43:16.712Z,10.68
2023-04-09T09:45:47.741Z,13.40
2023-04-09T09:48:16.430Z,12.15
2023-04-09T09:50:46.948Z,11.02
2023-04-09T09:53:18.622Z,10.93
2023-04-09T09:55:53.408Z,11.27
2023-04-09T09:58:25.904Z,11.82
2023-04-09T10:00:54.478Z,11.13
2023-04-09T10:03:24.419Z,11.85
2023-04-09T10:05:53.425Z,12.68
2023-04-09T10:08:25.369Z,15.40
2023-04-09T10:10:54.988Z,11.70
2023-04-09T10:13:31.559Z,11.65
2023-04-09T10:16:00.059Z,11.80
2023-04-09T10:18:28.177Z,11.40
2023-04-09T10:21:00.782Z,13.88
2023-04-09T10:23:35.125Z,16.67
2023-04-09T10:26:04.755Z,13.63
2023-04-09T10:28:32.738Z,13.80
2023-04-09T10:31:01.388Z,11.93
2023-04-09T10:33:29.426Z,13.20
2023-04-09T10:36:01.795Z,13.15
2023-04-09T10:38:37.568Z,11.73
2023-04-09T10:41:16.677Z,10.98
2023-04-09T10:43:47.824Z,12.50
2023-04-09T10:46:30.193Z,10.32
2023-04-09T10:51:39.882Z,9.57
2023-04-09T10:54:08.066Z,10.90
2023-04-09T10:56:39.792Z,9.57
2023-04-09T10:59:07.809Z,10.23
2023-04-09T11:01:35.958Z,9.63
2023-04-09T11:04:17.641Z,11.05
2023-04-09T11:06:46.631Z,7.30
2023-04-09T11:09:14.590Z,12.02
2023-04-09T11:11:44.002Z,11.70
2023-04-09T11:14:11.958Z,8.45
2023-04-09T11:16:39.910Z,8.32
2023-04-09T11:19:10.373Z,8.07
2023-04-09T11:21:38.413Z,8.23
2023-04-09T11:24:13.300Z,9.63
2023-04-09T11:26:45.147Z,7.07
2023-04-09T11:29:14.483Z,8.77
2023-04-09T11:31:46.203Z,7.75
2023-04-09T11:34:14.470Z,8.07
2023-04-09T11:36:42.811Z,8.85
2023-04-09T11:39:10.901Z,8.45
2023-04-09T11:41:40.135Z,8.35
2023-04-09T11:44:09.400Z,8.23
2023-04-09T11:46:40.148Z,8.68
2023-04-09T11:49:11.258Z,8.32
2023-04-09T11:51:39.292Z,7.20
2023-04-09T11:54:09.290Z,6.68
2023-04-09T11:56:37.637Z,7.50
2023-04-09T11:59:05.716Z,6.45
2023-04-09T12:01:33.949Z,7.70
2023-04-09T12:04:07.913Z,6.63
2023-04-09T12:06:41.844Z,10.82
2023-04-09T12:09:13.176Z,8.00
2023-04-09T12:11:44.459Z,7.40
2023-04-09T12:14:14.495Z,9.87
2023-04-09T12:16:44.000Z,7.35
2023-04-09T12:19:14.892Z,6.78
2023-04-09T12:21:55.731Z,7.60
2023-04-09T12:24:25.177Z,7.07
2023-04-09T12:26:53.616Z,7.97
2023-04-09T12:29:22.575Z,6.75
2023-04-09T12:31:50.679Z,6.50
2023-04-09T12:34:20.077Z,7.78
2023-04-09T12:36:48.393Z,7.65
2023-04-09T12:39:16.407Z,7.13
2023-04-09T12:41:44.852Z,6.35
2023-04-09T12:44:12.789Z,7.70
2023-04-09T12:46:40.747Z,6.25
2023-04-09T12:49:08.699Z,8.48
2023-04-09T12:51:38.012Z,7.10
2023-04-09T12:54:05.967Z,7.18
2023-04-09T12:56:36.194Z,6.82
2023-04-09T12:59:04.151Z,6.88
2023-04-09T13:01:32.159Z,6.82
2023-04-09T13:04:00.296Z,7.10
2023-04-09T13:06:28.399Z,6.70
2023-04-09T13:08:59.736Z,6.05
2023-04-09T13:11:27.686Z,7.22
2023-04-09T13:13:55.758Z,5.90
2023-04-09T13:16:23.659Z,6.95
2023-04-09T13:18:53.291Z,6.38
2023-04-09T13:21:21.358Z,6.88
2023-04-09T13:23:49.231Z,7.05
2023-04-09T13:26:18.525Z,6.38
2023-04-09T13:28:46.543Z,6.18
2023-04-09T13:31:14.663Z,6.15
2023-04-09T13:33:45.422Z,4.72
2023-04-09T13:36:13.548Z,6.70
2023-04-09T13:38:41.890Z,8.15
2023-04-09T13:41:09.909Z,6.25
2023-04-09T13:43:39.240Z,6.32
2023-04-09T13:46:07.502Z,6.07
2023-04-09T13:48:35.521Z,6.70
2023-04-09T13:51:03.572Z,6.28
2023-04-09T13:53:31.552Z,5.15
2023-04-09T13:56:01.124Z,6.03
2023-04-09T13:58:29.115Z,5.20
2023-04-09T14:00:58.436Z,6.68
2023-04-09T14:03:29.020Z,4.72
2023-04-09T14:05:57.448Z,5.97
2023-04-09T14:08:25.506Z,6.78
2023-04-09T14:10:53.439Z,5.15
2023-04-09T14:13:21.408Z,5.78
2023-04-09T14:15:52.272Z,5.80
2023-04-09T14:18:21.718Z,6.50
2023-04-09T14:20:49.673Z,6.40
2023-04-09T14:23:17.643Z,5.80
2023-04-09T14:25:45.746Z,6.60
2023-04-09T14:28:13.750Z,5.30
2023-04-09T14:30:44.601Z,5.78
2023-04-09T14:33:15.440Z,4.55
2023-04-09T14:35:44.821Z,6.03
2023-04-09T14:38:12.807Z,5.35
2023-04-09T14:40:40.781Z,4.80
2023-04-09T14:43:08.935Z,5.07
2023-04-09T14:45:36.987Z,5.53
2023-04-09T14:48:05.112Z,5.50
2023-04-09T14:50:33.933Z,6.57
2023-04-09T14:53:03.479Z,4.80
2023-04-09T14:55:31.415Z,5.53
2023-04-09T14:58:01.585Z,6.47
2023-04-09T15:00:29.557Z,5.95
2023-04-09T15:02:57.779Z,5.80
2023-04-09T15:05:25.901Z,4.75
2023-04-09T15:07:53.987Z,5.20
2023-04-09T15:10:23.356Z,5.05
2023-04-09T15:12:51.243Z,5.57
2023-04-09T15:15:19.189Z,4.63
2023-04-09T15:17:47.113Z,5.47
2023-04-09T15:20:15.104Z,7.25
2023-04-09T15:22:46.235Z,5.05
2023-04-09T15:25:14.527Z,4.97
2023-04-09T15:27:43.998Z,4.40
2023-04-09T15:30:12.416Z,4.07
2023-04-09T15:32:40.434Z,4.60
2023-04-09T15:35:09.134Z,4.47
2023-04-09T15:37:39.834Z,4.25
2023-04-09T15:40:08.977Z,4.88
2023-04-09T15:42:37.181Z,4.60
2023-04-09T15:45:09.977Z,4.07
2023-04-09T15:47:38.092Z,5.07
2023-04-09T15:50:07.533Z,4.55
2023-04-09T15:52:35.504Z,4.72
2023-04-09T15:55:03.502Z,5.93
2023-04-09T15:57:31.573Z,5.60
2023-04-09T16:00:02.674Z,4.13
2023-04-09T16:02:32.285Z,4.35
2023-04-09T16:05:01.964Z,6.13
2023-04-09T16:07:33.002Z,4.80
2023-04-09T16:10:01.572Z,5.38
2023-04-09T16:12:29.640Z,5.05
2023-04-09T16:14:57.551Z,6.45
2023-04-09T16:17:25.657Z,4.68
2023-04-09T16:19:55.046Z,4.50
2023-04-09T16:22:23.022Z,4.60
2023-04-09T16:24:50.966Z,4.18
2023-04-09T16:27:18.961Z,4.55
2023-04-09T16:29:47.282Z,4.40
2023-04-09T16:32:15.523Z,5.85
2023-04-09T16:34:43.527Z,5.15
2023-04-09T16:37:14.178Z,4.53
2023-04-09T16:39:42.169Z,4.25
2023-04-09T16:42:11.113Z,4.88
2023-04-09T16:44:39.081Z,4.55
2023-04-09T16:47:08.276Z,4.97
2023-04-09T16:49:36.289Z,4.28
2023-04-09T16:52:04.244Z,5.00
2023-04-09T16:54:33.539Z,4.45
2023-04-09T16:57:02.565Z,5.63
2023-04-09T16:59:30.444Z,4.07
2023-04-09T17:01:58.511Z,5.00
2023-04-09T17:04:26.501Z,4.38
2023-04-09T17:06:54.426Z,5.38
2023-04-09T17:09:22.429Z,4.20
2023-04-09T17:11:52.969Z,4.60
2023-04-09T17:14:21.089Z,4.80
2023-04-09T17:16:49.723Z,4.13
2023-04-09T17:19:18.147Z,3.78
2023-04-09T17:21:46.184Z,5.20
2023-04-09T17:24:14.185Z,4.63
2023-04-09T17:26:42.140Z,5.00
2023-04-09T17:29:11.470Z,4.40
2023-04-09T17:31:39.869Z,5.10
2023-04-09T17:34:08.572Z,4.82
2023-04-09T17:36:36.601Z,4.72
2023-04-09T17:39:04.609Z,4.20
2023-04-09T17:41:32.618Z,4.70
2023-04-09T17:44:00.610Z,4.60
2023-04-09T17:46:30.276Z,5.38
2023-04-09T17:48:58.364Z,4.13
2023-04-09T17:51:26.571Z,4.18
2023-04-09T17:53:54.708Z,4.70
2023-04-09T17:56:23.682Z,5.22
2023-04-09T17:58:52.235Z,4.30
2023-04-09T18:01:20.678Z,4.10
2023-04-09T18:03:50.557Z,4.97
2023-04-09T18:06:18.960Z,5.03
2023-04-09T18:08:47.186Z,5.22
2023-04-09T18:11:15.603Z,5.28
2023-04-09T18:13:43.566Z,5.65
2023-04-09T18:16:12.344Z,5.95
2023-04-09T18:18:40.639Z,5.28
2023-04-09T18:21:10.101Z,4.85
2023-04-09T18:23:39.533Z,5.68
2023-04-09T18:26:07.748Z,5.35
2023-04-09T18:28:35.821Z,5.07
2023-04-09T18:31:03.815Z,5.18
2023-04-09T18:33:31.833Z,6.50
2023-04-09T18:36:01.631Z,6.93
2023-04-09T18:38:31.664Z,5.43
2023-04-09T18:41:01.273Z,5.13
2023-04-09T18:43:29.480Z,5.72
2023-04-09T18:45:58.205Z,5.15
2023-04-09T18:48:26.747Z,5.70
2023-04-09T18:50:54.752Z,6.82
2023-04-09T18:53:22.708Z,5.43
2023-04-09T18:55:51.991Z,7.22
2023-04-09T18:58:19.961Z,5.47
2023-04-09T19:00:50.651Z,5.88
2023-04-09T19:03:19.154Z,6.85
2023-04-09T19:05:47.351Z,7.95
2023-04-09T19:08:17.710Z,6.95
2023-04-09T19:10:47.576Z,7.13
2023-04-09T19:13:17.063Z,6.65
2023-04-09T19:15:45.023Z,7.80
2023-04-09T19:18:13.153Z,7.57
2023-04-09T19:20:41.568Z,7.78
2023-04-09T19:23:09.962Z,8.38
2023-04-09T19:25:37.934Z,7.80
2023-04-09T19:28:05.905Z,8.48
2023-04-09T19:30:35.263Z,8.90
2023-04-09T19:33:03.204Z,8.55
2023-04-09T19:35:33.067Z,7.55
2023-04-09T19:38:04.162Z,9.88
2023-04-09T19:40:32.881Z,9.18
2023-04-09T19:43:00.851Z,10.13
2023-04-09T19:45:28.942Z,8.95
2023-04-09T19:47:58.397Z,6.13
2023-04-09T19:50:27.323Z,8.23
2023-04-09T19:52:55.761Z,9.85
2023-04-09T19:55:25.012Z,15.80
2023-04-09T19:57:52.929Z,9.95
2023-04-09T20:00:21.153Z,12.00
2023-04-09T20:02:49.144Z,11.55
2023-04-09T20:05:20.969Z,12.80
2023-04-09T20:07:48.990Z,11.02
2023-04-09T20:10:17.428Z,13.75
2023-04-09T20:12:48.963Z,11.98
2023-04-09T20:15:20.090Z,13.80
2023-04-09T20:17:48.911Z,12.80
2023-04-09T20:20:20.049Z,13.95
2023-04-09T20:22:55.517Z,13.52
2023-04-09T20:25:25.295Z,13.57
2023-04-09T20:27:54.462Z,14.07
2023-04-09T20:30:22.620Z,14.07
2023-04-09T20:32:50.691Z,14.63
2023-04-09T20:35:20.412Z,14.63
2023-04-09T20:37:49.977Z,14.95
2023-04-09T20:40:17.966Z,14.18
2023-04-09T20:42:46.197Z,17.55
2023-04-09T20:45:14.189Z,13.85
2023-04-09T20:47:42.250Z,15.80
2023-04-09T20:50:11.163Z,14.38
2023-04-09T20:52:42.807Z,14.10
2023-04-09T20:55:10.914Z,16.30
2023-04-09T20:57:41.674Z,15.90
2023-04-09T21:00:11.103Z,15.95
2023-04-09T21:02:40.525Z,15.43
2023-04-09T21:05:21.937Z,14.65
2023-04-09T21:07:53.361Z,13.93
2023-04-09T21:10:21.487Z,15.50
2023-04-09T21:12:49.683Z,13.02
2023-04-09T21:15:17.798Z,14.45
2023-04-09T21:17:45.919Z,13.82
2023-04-09T21:20:15.121Z,14.10
2023-04-09T21:22:43.159Z,16.67
2023-04-09T21:25:15.108Z,12.95
2023-04-09T21:30:11.569Z,14.20
2023-04-09T21:32:39.607Z,14.98
2023-04-09T21:35:08.084Z,14.80
2023-04-09T21:37:37.564Z,15.45
2023-04-09T21:40:06.425Z,13.15
2023-04-09T21:42:35.885Z,15.70
2023-04-09T21:45:03.928Z,13.45
2023-04-09T21:47:32.064Z,14.93
2023-04-09T21:50:00.181Z,15.88
2023-04-09T21:52:28.163Z,14.85
2023-04-09T21:54:56.035Z,16.55
2023-04-09T21:57:24.005Z,13.77
2023-04-09T21:59:53.355Z,17.83
2023-04-09T22:02:21.423Z,15.45
2023-04-09T22:04:52.230Z,15.73
2023-04-09T22:07:20.419Z,16.25
2023-04-09T22:09:48.305Z,15.45
2023-04-09T22:12:16.559Z,16.02
2023-04-09T22:14:46.007Z,16.08
2023-04-09T22:17:18.313Z,17.42
2023-04-09T22:19:46.527Z,16.85
2023-04-09T22:22:15.124Z,15.77
2023-04-09T22:24:44.093Z,16.00
2023-04-09T22:27:12.993Z,16.98
2023-04-09T22:29:40.930Z,16.27
2023-04-09T22:32:09.009Z,14.50
2023-04-09T22:34:38.355Z,15.73
2023-04-09T22:37:06.302Z,15.43
2023-04-09T22:39:34.337Z,17.80
2023-04-09T22:42:03.165Z,15.75
2023-04-09T22:44:31.154Z,16.58
2023-04-09T22:46:59.164Z,16.55
2023-04-09T22:49:29.856Z,17.92
2023-04-09T22:51:59.293Z,15.07
2023-04-09T22:54:27.255Z,17.02
2023-04-09T22:56:56.712Z,17.80
2023-04-09T22:59:30.478Z,16.42
2023-04-09T23:04:35.160Z,16.20
2023-04-09T23:07:04.780Z,14.65
2023-04-09T23:09:32.708Z,16.83
2023-04-09T23:12:01.138Z,15.52
2023-04-09T23:14:29.157Z,14.60
2023-04-09T23:16:59.729Z,16.83
2023-04-09T23:19:27.585Z,15.68
2023-04-09T23:21:55.536Z,16.63
2023-04-09T23:24:24.983Z,16.42
2023-04-09T23:26:52.992Z,16.77
2023-04-09T23:29:20.933Z,13.95
2023-04-09T23:31:48.959Z,14.35
2023-04-09T23:34:16.981Z,15.00
2023-04-09T23:36:44.879Z,14.95
2023-04-09T23:39:12.832Z,13.82
2023-04-09T23:41:42.134Z,15.75
2023-04-09T23:44:10.094Z,15.38
2023-04-09T23:46:38.041Z,14.50
2023-04-09T23:49:06.068Z,14.32
2023-04-09T23:51:34.286Z,15.30
2023-04-09T23:54:04.872Z,13.43
2023-04-09T23:56:32.914Z,15.38
2023-04-09T23:59:02.247Z,17.17
